createdAt,value
2022-11-03T00:01:39.227Z,11.23
2022-11-03T00:04:07.791Z,16.50
2022-11-03T00:06:36.175Z,11.30
2022-11-03T00:11:37.321Z,10.27
2022-11-03T00:14:10.236Z,8.13
2022-11-03T00:16:39.687Z,18.23
2022-11-03T00:19:09.497Z,16.15
2022-11-03T00:21:36.785Z,14.63
2022-11-03T00:24:05.331Z,11.60
2022-11-03T00:29:08.302Z,12.77
2022-11-03T00:31:37.688Z,18.70
2022-11-03T00:34:08.960Z,10.27
2022-11-03T00:36:42.256Z,11.77
2022-11-03T00:39:09.706Z,8.82
2022-11-03T00:41:37.012Z,11.33
2022-11-03T00:44:03.934Z,16.90
2022-11-03T00:46:35.397Z,15.52
2022-11-03T00:49:04.261Z,14.30
2022-11-03T00:54:04.436Z,10.00
2022-11-03T00:56:35.516Z,12.40
2022-11-03T00:59:10.253Z,14.82
2022-11-03T01:01:46.437Z,18.00
2022-11-03T01:04:33.216Z,12.77
2022-11-03T01:07:04.584Z,13.25
2022-11-03T01:09:40.187Z,17.92
2022-11-03T01:12:12.369Z,11.68
2022-11-03T01:14:50.709Z,14.07
2022-11-03T01:17:20.518Z,13.25
2022-11-03T01:19:47.479Z,6.70
2022-11-03T01:22:15.920Z,12.10
2022-11-03T01:24:43.825Z,22.40
2022-11-03T01:27:16.464Z,13.52
2022-11-03T01:29:43.512Z,13.25
2022-11-03T01:32:11.602Z,16.20
2022-11-03T01:34:39.144Z,13.90
2022-11-03T01:37:06.525Z,10.90
2022-11-03T01:39:33.117Z,13.90
2022-11-03T01:41:59.642Z,12.70
2022-11-03T01:44:36.544Z,11.60
2022-11-03T01:47:12.228Z,9.75
2022-11-03T01:49:48.767Z,7.05
2022-11-03T01:52:36.819Z,9.88
2022-11-03T01:58:05.771Z,13.32
2022-11-03T02:00:32.898Z,15.18
2022-11-03T02:03:00.364Z,10.98
2022-11-03T02:05:28.927Z,13.53
2022-11-03T02:10:41.417Z,11.95
2022-11-03T02:13:17.548Z,12.27
2022-11-03T02:15:47.480Z,13.80
2022-11-03T02:18:16.240Z,6.90
2022-11-03T02:20:44.477Z,11.48
2022-11-03T02:23:24.527Z,13.32
2022-11-03T02:25:58.721Z,14.23
2022-11-03T02:28:31.200Z,9.30
2022-11-03T02:31:16.190Z,12.48
2022-11-03T02:33:57.096Z,13.35
2022-11-03T02:36:42.010Z,12.18
2022-11-03T02:39:17.419Z,8.77
2022-11-03T02:41:45.949Z,14.98
2022-11-03T02:44:16.369Z,17.23
2022-11-03T02:46:46.155Z,11.80
2022-11-03T02:49:13.143Z,14.57
2022-11-03T02:51:39.850Z,14.98
2022-11-03T02:54:15.812Z,18.55
2022-11-03T02:56:52.073Z,14.30
2022-11-03T02:59:26.273Z,12.30
2022-11-03T03:02:06.514Z,13.98
2022-11-03T03:04:42.655Z,14.07
2022-11-03T03:07:37.609Z,11.18
2022-11-03T03:10:14.554Z,13.02
2022-11-03T03:12:46.761Z,9.98
2022-11-03T03:15:14.744Z,16.73
2022-11-03T03:17:50.647Z,12.15
2022-11-03T03:20:25.542Z,8.52
2022-11-03T03:23:05.145Z,15.70
2022-11-03T03:25:40.845Z,9.07
2022-11-03T03:28:15.737Z,10.48
2022-11-03T03:30:43.888Z,10.27
2022-11-03T03:33:12.902Z,9.57
2022-11-03T03:35:44.135Z,11.85
2022-11-03T03:38:32.340Z,11.25
2022-11-03T03:41:00.828Z,12.50
2022-11-03T03:45:58.277Z,11.27
2022-11-03T03:48:24.813Z,9.98
2022-11-03T03:50:52.356Z,13.15
2022-11-03T03:53:19.520Z,10.50
2022-11-03T03:55:49.423Z,11.32
2022-11-03T03:58:16.382Z,13.10
2022-11-03T04:00:43.173Z,14.30
2022-11-03T04:03:21.213Z,15.55
2022-11-03T04:05:48.120Z,11.55
2022-11-03T04:08:16.155Z,12.70
2022-11-03T04:11:05.740Z,12.38
2022-11-03T04:13:51.544Z,10.50
2022-11-03T04:16:36.333Z,11.05
2022-11-03T04:19:21.306Z,8.95
2022-11-03T04:22:06.132Z,13.13
2022-11-03T04:24:32.534Z,11.85
2022-11-03T04:27:08.670Z,13.88
2022-11-03T04:29:35.048Z,14.27
2022-11-03T04:32:17.551Z,14.02
2022-11-03T04:34:48.162Z,15.43
2022-11-03T04:37:15.685Z,9.45
2022-11-03T04:39:42.212Z,12.60
2022-11-03T04:42:18.197Z,11.52
2022-11-03T04:44:45.975Z,14.48
2022-11-03T04:47:14.174Z,9.65
2022-11-03T04:49:41.126Z,9.65
2022-11-03T04:52:22.374Z,12.40
2022-11-03T04:54:52.286Z,9.73
2022-11-03T04:57:18.693Z,10.85
2022-11-03T04:59:47.378Z,6.32
2022-11-03T05:02:16.161Z,9.40
2022-11-03T05:04:42.918Z,15.88
2022-11-03T05:07:22.949Z,12.82
2022-11-03T05:09:50.037Z,6.57
2022-11-03T05:12:17.421Z,11.57
2022-11-03T05:14:43.972Z,10.25
2022-11-03T05:17:25.348Z,12.07
2022-11-03T05:19:57.824Z,8.45
2022-11-03T05:22:29.152Z,13.75
2022-11-03T05:25:03.595Z,12.32
2022-11-03T05:27:30.383Z,10.55
2022-11-03T05:30:00.961Z,11.40
2022-11-03T05:32:30.203Z,9.07
2022-11-03T05:34:57.286Z,12.18
2022-11-03T05:37:27.290Z,10.40
2022-11-03T05:39:58.770Z,9.77
2022-11-03T05:42:36.317Z,15.00
2022-11-03T05:45:15.760Z,10.18
2022-11-03T05:47:42.449Z,10.70
2022-11-03T05:50:18.639Z,9.35
2022-11-03T05:52:47.372Z,9.65
2022-11-03T05:55:24.883Z,7.90
2022-11-03T05:57:52.219Z,9.55
2022-11-03T06:00:27.495Z,12.95
2022-11-03T06:02:55.177Z,10.48
2022-11-03T06:05:23.626Z,8.15
2022-11-03T06:10:31.734Z,10.40
2022-11-03T06:13:11.281Z,12.35
2022-11-03T06:15:37.709Z,8.50
2022-11-03T06:18:21.450Z,10.50
2022-11-03T06:20:59.741Z,14.77
2022-11-03T06:25:55.550Z,8.93
2022-11-03T06:28:29.615Z,11.32
2022-11-03T06:30:56.674Z,11.82
2022-11-03T06:33:34.917Z,13.77
2022-11-03T06:38:34.085Z,13.07
2022-11-03T06:41:00.499Z,10.25
2022-11-03T06:43:41.393Z,14.05
2022-11-03T06:46:23.960Z,8.82
2022-11-03T06:48:53.568Z,8.32
2022-11-03T06:51:25.808Z,9.40
2022-11-03T06:53:54.312Z,10.75
2022-11-03T06:56:26.644Z,9.20
2022-11-03T06:58:55.169Z,8.60
2022-11-03T07:01:24.410Z,9.05
2022-11-03T07:03:57.185Z,7.95
2022-11-03T07:06:29.108Z,15.43
2022-11-03T07:08:58.877Z,6.68
2022-11-03T07:11:28.536Z,9.38
2022-11-03T07:14:02.875Z,7.35
2022-11-03T07:16:58.571Z,10.57
2022-11-03T07:19:33.321Z,8.60
2022-11-03T07:22:02.648Z,11.07
2022-11-03T07:24:38.353Z,9.68
2022-11-03T07:27:28.459Z,11.00
2022-11-03T07:30:00.557Z,12.38
2022-11-03T07:32:31.166Z,13.80
2022-11-03T07:35:18.926Z,9.90
2022-11-03T07:37:47.618Z,8.57
2022-11-03T07:40:21.560Z,12.93
2022-11-03T07:42:48.010Z,11.73
2022-11-03T07:45:36.008Z,9.57
2022-11-03T07:48:14.608Z,12.13
2022-11-03T07:50:44.196Z,8.45
2022-11-03T07:53:25.712Z,7.25
2022-11-03T07:55:54.840Z,6.88
2022-11-03T07:58:29.342Z,10.57
2022-11-03T08:00:59.024Z,11.60
2022-11-03T08:03:32.808Z,9.95
2022-11-03T08:05:59.211Z,10.70
2022-11-03T08:08:25.606Z,12.27
2022-11-03T08:10:52.104Z,13.38
2022-11-03T08:13:19.561Z,8.18
2022-11-03T08:15:45.942Z,10.02
2022-11-03T08:18:12.324Z,10.48
2022-11-03T08:20:38.705Z,8.70
2022-11-03T08:23:24.612Z,9.32
2022-11-03T08:25:51.459Z,7.45
2022-11-03T08:28:18.850Z,7.32
2022-11-03T08:30:45.260Z,10.85
2022-11-03T08:33:11.718Z,17.08
2022-11-03T08:35:38.200Z,11.75
2022-11-03T08:38:05.098Z,9.10
2022-11-03T08:40:31.761Z,8.77
2022-11-03T08:42:58.269Z,10.23
2022-11-03T08:45:24.739Z,8.13
2022-11-03T08:47:51.167Z,13.00
2022-11-03T08:50:17.662Z,8.05
2022-11-03T08:52:44.045Z,13.68
2022-11-03T08:55:10.521Z,7.25
2022-11-03T08:57:36.908Z,10.60
2022-11-03T09:00:05.833Z,13.73
2022-11-03T09:02:32.559Z,13.32
2022-11-03T09:04:59.089Z,7.72
2022-11-03T09:12:41.456Z,12.55
2022-11-03T09:15:08.304Z,9.30
2022-11-03T09:17:39.499Z,9.70
2022-11-03T09:20:10.031Z,8.43
2022-11-03T09:22:36.578Z,10.65
2022-11-03T09:25:10.981Z,10.30
2022-11-03T09:27:57.483Z,10.35
2022-11-03T09:30:50.056Z,12.55
2022-11-03T09:33:42.999Z,16.30
2022-11-03T09:36:29.345Z,15.48
2022-11-03T09:39:22.050Z,15.73
2022-11-03T09:42:11.121Z,8.05
2022-11-03T09:45:04.031Z,10.98
2022-11-03T09:47:57.061Z,10.10
2022-11-03T09:50:50.062Z,13.70
2022-11-03T09:53:36.823Z,11.85
2022-11-03T09:56:25.403Z,11.40
2022-11-03T09:59:24.062Z,11.85
2022-11-03T10:02:21.043Z,9.30
2022-11-03T10:05:19.065Z,8.83
2022-11-03T10:11:09.290Z,9.45
2022-11-03T10:14:03.108Z,10.70
2022-11-03T10:16:55.341Z,10.23
2022-11-03T10:19:48.083Z,6.18
2022-11-03T10:22:41.171Z,7.93
2022-11-03T10:25:48.105Z,9.10
2022-11-03T10:28:41.131Z,11.13
2022-11-03T10:31:43.123Z,10.35
2022-11-03T10:34:36.455Z,9.75
2022-11-03T10:37:31.157Z,10.98
2022-11-03T10:40:47.859Z,6.10
2022-11-03T10:43:49.152Z,8.23
2022-11-03T10:46:49.713Z,9.98
2022-11-03T10:49:43.315Z,9.68
2022-11-03T10:52:30.568Z,5.90
2022-11-03T10:55:25.668Z,5.80
2022-11-03T10:58:12.415Z,12.02
2022-11-03T11:01:05.288Z,8.32
2022-11-03T11:03:51.906Z,5.65
2022-11-03T11:06:47.239Z,7.43
2022-11-03T11:09:47.216Z,7.18
2022-11-03T11:12:33.916Z,8.73
2022-11-03T11:15:49.221Z,7.88
2022-11-03T11:18:38.601Z,7.72
2022-11-03T11:21:35.616Z,9.10
2022-11-03T11:24:44.245Z,6.32
2022-11-03T11:27:40.261Z,6.53
2022-11-03T11:30:29.537Z,9.52
2022-11-03T11:33:31.279Z,7.00
2022-11-03T11:36:25.308Z,6.38
2022-11-03T11:39:20.295Z,10.25
2022-11-03T11:42:23.199Z,7.85
2022-11-03T11:45:16.312Z,7.63
2022-11-03T11:48:23.300Z,6.82
2022-11-03T11:51:11.740Z,5.77
2022-11-03T11:54:17.631Z,5.50
2022-11-03T11:57:25.317Z,7.25
2022-11-03T12:00:30.345Z,8.55
2022-11-03T12:03:16.951Z,6.90
2022-11-03T12:06:10.335Z,7.22
2022-11-03T12:09:20.327Z,6.30
2022-11-03T12:12:47.351Z,7.15
2022-11-03T12:16:03.355Z,9.00
2022-11-03T12:18:50.737Z,5.10
2022-11-03T12:21:55.361Z,7.72
2022-11-03T12:24:56.399Z,8.68
2022-11-03T12:27:43.285Z,6.00
2022-11-03T12:30:39.822Z,7.50
2022-11-03T12:33:28.107Z,6.80
2022-11-03T12:36:21.396Z,5.40
2022-11-03T12:39:07.725Z,5.28
2022-11-03T12:42:00.409Z,6.78
2022-11-03T12:44:44.348Z,9.93
2022-11-03T12:47:12.015Z,7.05
2022-11-03T12:49:38.480Z,5.72
2022-11-03T12:52:08.790Z,7.72
2022-11-03T12:54:35.481Z,9.45
2022-11-03T12:57:02.258Z,4.22
2022-11-03T12:59:28.872Z,8.90
2022-11-03T13:01:55.427Z,6.13
2022-11-03T13:04:21.937Z,5.03
2022-11-03T13:06:48.465Z,7.85
2022-11-03T13:09:14.936Z,5.80
2022-11-03T13:12:00.380Z,8.93
2022-11-03T13:14:26.886Z,10.20
2022-11-03T13:16:53.440Z,6.47
2022-11-03T13:19:20.328Z,9.00
2022-11-03T13:21:46.777Z,10.07
2022-11-03T13:24:13.264Z,7.35
2022-11-03T13:26:39.667Z,9.05
2022-11-03T13:29:06.092Z,5.25
2022-11-03T13:31:32.842Z,5.18
2022-11-03T13:33:59.208Z,4.68
2022-11-03T13:36:25.688Z,4.38
2022-11-03T13:38:52.448Z,6.78
2022-11-03T13:41:18.827Z,9.48
2022-11-03T13:43:45.209Z,6.93
2022-11-03T13:46:12.864Z,4.38
2022-11-03T13:51:26.175Z,8.77
2022-11-03T13:59:26.127Z,6.53
2022-11-03T14:07:11.345Z,6.65
2022-11-03T14:09:37.930Z,6.47
2022-11-03T14:12:23.421Z,5.95
2022-11-03T14:14:49.808Z,8.50
2022-11-03T14:17:16.200Z,5.10
2022-11-03T14:19:47.231Z,5.25
2022-11-03T14:22:17.103Z,3.88
2022-11-03T14:24:43.997Z,9.32
2022-11-03T14:27:10.464Z,7.85
2022-11-03T14:29:36.887Z,9.07
2022-11-03T14:32:03.601Z,4.97
2022-11-03T14:34:30.121Z,10.23
2022-11-03T14:36:56.596Z,5.97
2022-11-03T14:39:23.110Z,7.38
2022-11-03T14:42:04.697Z,3.83
2022-11-03T14:44:31.118Z,5.90
2022-11-03T14:46:57.925Z,8.18
2022-11-03T14:49:24.413Z,6.43
2022-11-03T14:51:51.047Z,4.75
2022-11-03T14:54:17.435Z,4.68
2022-11-03T14:56:43.813Z,5.32
2022-11-03T14:59:10.252Z,7.70
2022-11-03T15:01:38.544Z,6.35
2022-11-03T15:04:05.372Z,8.13
2022-11-03T15:06:35.200Z,7.07
2022-11-03T15:09:02.942Z,11.93
2022-11-03T15:11:29.415Z,4.38
2022-11-03T15:13:55.882Z,8.23
2022-11-03T15:16:23.063Z,8.45
2022-11-03T15:18:50.128Z,7.82
2022-11-03T15:21:16.863Z,7.95
2022-11-03T15:26:30.376Z,7.03
2022-11-03T15:28:57.210Z,4.63
2022-11-03T15:31:23.646Z,10.15
2022-11-03T15:33:50.066Z,7.15
2022-11-03T15:36:16.588Z,5.63
2022-11-03T15:38:43.006Z,8.38
2022-11-03T15:41:15.904Z,7.03
2022-11-03T15:43:50.378Z,7.75
2022-11-03T15:46:18.407Z,11.45
2022-11-03T15:48:45.667Z,6.97
2022-11-03T15:51:12.508Z,4.50
2022-11-03T15:53:39.554Z,7.40
2022-11-03T15:56:06.539Z,6.35
2022-11-03T15:58:34.314Z,8.88
2022-11-03T16:01:04.429Z,4.28
2022-11-03T16:03:32.068Z,4.20
2022-11-03T16:05:59.159Z,6.85
2022-11-03T16:08:25.923Z,7.72
2022-11-03T16:10:57.595Z,5.40
2022-11-03T16:13:25.406Z,5.78
2022-11-03T16:15:54.259Z,10.88
2022-11-03T16:18:20.894Z,8.48
2022-11-03T16:20:47.279Z,6.47
2022-11-03T16:23:13.721Z,7.38
2022-11-03T16:25:40.346Z,6.30
2022-11-03T16:28:07.073Z,3.70
2022-11-03T16:30:35.216Z,9.10
2022-11-03T16:33:01.726Z,5.55
2022-11-03T16:35:29.551Z,9.65
2022-11-03T16:37:56.456Z,12.75
2022-11-03T16:40:23.648Z,8.63
2022-11-03T16:42:50.283Z,7.43
2022-11-03T16:45:22.665Z,4.72
2022-11-03T16:47:50.560Z,5.25
2022-11-03T16:50:18.552Z,8.30
2022-11-03T16:52:46.480Z,12.70
2022-11-03T16:55:14.763Z,7.05
2022-11-03T16:57:41.723Z,8.95
2022-11-03T17:00:12.760Z,7.32
2022-11-03T17:02:39.645Z,8.23
2022-11-03T17:05:06.793Z,8.63
2022-11-03T17:07:33.342Z,6.25
2022-11-03T17:09:59.892Z,8.55
2022-11-03T17:12:26.488Z,7.95
2022-11-03T17:14:55.700Z,7.43
2022-11-03T17:17:23.296Z,8.18
2022-11-03T17:19:50.096Z,6.47
2022-11-03T17:22:16.917Z,7.28
2022-11-03T17:24:43.526Z,8.38
2022-11-03T17:27:15.502Z,7.63
2022-11-03T17:29:48.241Z,6.82
2022-11-03T17:32:24.057Z,10.02
2022-11-03T17:34:52.247Z,8.02
2022-11-03T17:37:19.642Z,7.70
2022-11-03T17:39:46.183Z,11.97
2022-11-03T17:42:18.641Z,10.15
2022-11-03T17:44:49.435Z,9.25
2022-11-03T17:47:17.531Z,11.82
2022-11-03T17:49:44.564Z,10.32
2022-11-03T17:52:27.740Z,12.20
2022-11-03T17:54:57.240Z,12.07
2022-11-03T17:57:24.425Z,6.60
2022-11-03T17:59:56.041Z,9.43
2022-11-03T18:02:25.964Z,11.48
2022-11-03T18:05:00.082Z,12.73
2022-11-03T18:07:28.502Z,8.48
2022-11-03T18:12:44.853Z,12.32
2022-11-03T18:15:17.529Z,10.40
2022-11-03T18:17:43.952Z,9.00
2022-11-03T18:20:17.953Z,12.60
2022-11-03T18:22:45.081Z,11.27
2022-11-03T18:25:16.743Z,10.93
2022-11-03T18:27:43.978Z,14.75
2022-11-03T18:30:11.961Z,13.77
2022-11-03T18:32:40.680Z,11.13
2022-11-03T18:35:15.266Z,13.95
2022-11-03T18:37:44.098Z,14.25
2022-11-03T18:40:12.544Z,11.95
2022-11-03T18:45:13.350Z,11.52
2022-11-03T18:47:40.152Z,14.45
2022-11-03T18:50:07.472Z,13.05
2022-11-03T18:52:39.683Z,13.88
2022-11-03T18:55:10.965Z,14.35
2022-11-03T18:57:38.214Z,14.43
2022-11-03T19:00:13.678Z,13.43
2022-11-03T19:02:40.143Z,13.77
2022-11-03T19:05:12.484Z,12.93
2022-11-03T19:07:42.308Z,15.98
2022-11-03T19:10:13.588Z,10.15
2022-11-03T19:12:43.603Z,15.75
2022-11-03T19:15:17.965Z,13.60
2022-11-03T19:17:44.506Z,13.88
2022-11-03T19:20:14.271Z,16.65
2022-11-03T19:22:40.964Z,15.07
2022-11-03T19:25:08.172Z,16.48
2022-11-03T19:27:37.271Z,15.95
2022-11-03T19:30:05.669Z,16.15
2022-11-03T19:35:16.962Z,21.02
2022-11-03T19:37:43.760Z,14.60
2022-11-03T19:40:16.077Z,10.93
2022-11-03T19:42:50.206Z,17.45
2022-11-03T19:45:19.665Z,18.60
2022-11-03T19:48:18.083Z,18.48
2022-11-03T19:50:39.743Z,17.02
2022-11-03T19:53:07.333Z,13.63
2022-11-03T19:55:40.300Z,17.42
2022-11-03T19:58:31.242Z,16.42
2022-11-03T20:00:57.739Z,15.15
2022-11-03T20:03:24.982Z,18.50
2022-11-03T20:05:53.845Z,16.98
2022-11-03T20:08:24.438Z,14.15
2022-11-03T20:10:51.155Z,15.35
2022-11-03T20:13:20.987Z,17.88
2022-11-03T20:15:47.932Z,16.23
2022-11-03T20:18:17.373Z,15.13
2022-11-03T20:20:48.045Z,17.35
2022-11-03T20:23:22.616Z,15.65
2022-11-03T20:25:49.326Z,14.15
2022-11-03T20:28:22.727Z,19.75
2022-11-03T20:30:49.340Z,14.88
2022-11-03T20:33:18.416Z,17.23
2022-11-03T20:35:46.229Z,18.90
2022-11-03T20:38:15.123Z,19.13
2022-11-03T20:40:42.194Z,14.27
2022-11-03T20:43:34.856Z,16.27
2022-11-03T20:46:01.529Z,14.20
2022-11-03T20:48:28.052Z,14.90
2022-11-03T20:50:54.808Z,14.68
2022-11-03T20:53:23.607Z,17.02
2022-11-03T20:55:50.895Z,15.00
2022-11-03T20:58:18.043Z,11.90
2022-11-03T21:00:46.287Z,15.85
2022-11-03T21:06:20.503Z,13.10
2022-11-03T21:08:47.893Z,12.30
2022-11-03T21:11:30.019Z,11.07
2022-11-03T21:14:02.601Z,15.80
2022-11-03T21:16:48.650Z,13.38
2022-11-03T21:19:37.697Z,11.93
2022-11-03T21:22:38.313Z,16.38
2022-11-03T21:25:12.149Z,13.05
2022-11-03T21:27:41.738Z,11.30
2022-11-03T21:30:11.523Z,12.63
2022-11-03T21:32:38.076Z,12.15
2022-11-03T21:35:05.650Z,15.95
2022-11-03T21:37:32.072Z,12.18
2022-11-03T21:39:58.517Z,15.38
2022-11-03T21:42:43.543Z,12.70
2022-11-03T21:45:10.072Z,11.65
2022-11-03T21:47:36.835Z,14.18
2022-11-03T21:50:03.573Z,11.05
2022-11-03T21:52:33.058Z,12.02
2022-11-03T21:55:04.720Z,12.18
2022-11-03T21:57:31.806Z,12.60
2022-11-03T21:59:58.727Z,10.52
2022-11-03T22:02:26.816Z,8.55
2022-11-03T22:04:56.584Z,15.52
2022-11-03T22:07:23.561Z,9.35
2022-11-03T22:09:50.007Z,12.07
2022-11-03T22:12:16.401Z,10.43
2022-11-03T22:15:01.218Z,8.85
2022-11-03T22:17:27.789Z,10.13
2022-11-03T22:20:12.934Z,10.98
2022-11-03T22:22:57.866Z,9.18
2022-11-03T22:25:43.595Z,8.80
2022-11-03T22:28:14.349Z,12.48
2022-11-03T22:31:00.299Z,11.70
2022-11-03T22:33:26.864Z,13.23
2022-11-03T22:36:21.330Z,13.00
2022-11-03T22:39:07.020Z,11.68
2022-11-03T22:41:51.866Z,10.60
2022-11-03T22:44:37.276Z,10.75
2022-11-03T22:47:08.084Z,7.43
2022-11-03T22:49:35.510Z,8.18
2022-11-03T22:52:02.616Z,6.82
2022-11-03T22:54:29.657Z,6.32
2022-11-03T22:56:56.161Z,7.60
2022-11-03T22:59:22.572Z,6.00
2022-11-03T23:01:49.161Z,7.05
2022-11-03T23:04:15.645Z,6.43
2022-11-03T23:06:42.067Z,6.20
2022-11-03T23:09:10.891Z,6.03
2022-11-03T23:11:37.688Z,10.05
2022-11-03T23:14:07.743Z,5.55
2022-11-03T23:16:40.382Z,6.00
2022-11-03T23:19:28.751Z,2.97
2022-11-03T23:21:55.505Z,3.40
2022-11-03T23:24:45.128Z,2.25
2022-11-03T23:27:13.002Z,2.30
2022-11-03T23:29:39.796Z,1.25
2022-11-03T23:32:06.681Z,2.83
2022-11-03T23:34:35.006Z,1.38
2022-11-03T23:37:03.231Z,2.97
2022-11-03T23:39:29.715Z,1.55
2022-11-03T23:41:56.350Z,1.67
2022-11-03T23:44:22.996Z,2.65
2022-11-03T23:47:07.868Z,2.80
2022-11-03T23:49:34.473Z,1.17
2022-11-03T23:52:00.956Z,0.65
2022-11-03T23:54:30.588Z,1.00
2022-11-03T23:57:15.642Z,2.53
2022-11-03T23:59:42.386Z,1.00
